Mijn Webcam  Mijn Webcam


webcam richting noord-oost  webcam facing north-east


Regen radar Meer informatie rain snow radar


Bezoek onze andere website:

Template documentation
and downloads

HWS Template - cumulus versie

HWS Template - WU versie

And another site



METAR rapporten vliegvelden

   
EHGG - Groningen/Eelde, Netherlands
Afstand tot: Z 20 km
Gewijzigd: 27-01-2020 17:25
Bewolking  
Bewolking  
   Wind: Zuiden 14.8 km/h
Wind: Zuiden 14.8 km/h
Temperatuur: 9°C
Voelt als: 7°C
Dauwpunt: 7°C
Vochtigheid: 87%
Barometer: 1001 hPa
Bewolking: Bewolking
Zicht: meer dan 10 km
Bewolking: Licht bewolkt 426.7 m,
Bewolking 1402.1 m
EHGG 271625Z AUTO 19008KT 150V220 9999 FEW014 OVC046 09/07 Q1001 NOSIG
EHMA - Awg-1 Sea, Netherlands
Afstand tot: WNW 45 km
Gewijzigd: 27-01-2020 17:25
Grotendeels bewolkt  
Grotendeels bewolkt  
   Wind: ZZW 37 km/h
Wind: ZZW 37 km/h
Temperatuur: 8°C
Voelt als: 3°C
Dauwpunt: 7°C
Vochtigheid: 93%
Barometer: 1000 hPa
Bewolking: Grotendeels bewolkt
Zicht: meer dan 10 km
Bewolking: Licht bewolkt 274.3 m,
Gedeeltelijk bewolkt 548.6 m,
Grotendeels bewolkt 1219.2 m
EHMA 271625Z AUTO 21020KT 180V240 9999 FEW009 SCT018 BKN040 08/07 Q1000
 

Script ontwikkeld door  Saratoga-weather.org Aangepast voor de template door  Weerstation Leuven

U vindt ons ook hier:

Het Weer Aktueel

UK Metoffice

European Weather Network

WeatherCloud

Weather Underground

Benelux Weer Netwerk

AWEKAS

WeatherlinkIP

HAMweather, WeatherForYou, PWS Weather

Apparatuur in gebruik:

Weerstation
Davis VP2

Weerprogramma
Cumulus

Davis VP2

Cumulus